sensor_id;sensor_type;location;lat;lon;timestamp;P1;durP1;ratioP1;P2;durP2;ratioP2
8640;SDS011;4358;42.100;25.222;2022-09-14T00:01:31;4.80;;;4.20;;
8640;SDS011;4358;42.100;25.222;2022-09-14T00:03:59;9.83;;;7.93;;
8640;SDS011;4358;42.100;25.222;2022-09-14T00:06:29;10.57;;;7.60;;
8640;SDS011;4358;42.100;25.222;2022-09-14T00:08:56;6.63;;;5.73;;
8640;SDS011;4358;42.100;25.222;2022-09-14T00:11:25;6.60;;;5.90;;
8640;SDS011;4358;42.100;25.222;2022-09-14T00:13:53;6.60;;;5.90;;
8640;SDS011;4358;42.100;25.222;2022-09-14T00:16:23;10.37;;;9.03;;
8640;SDS011;4358;42.100;25.222;2022-09-14T00:18:53;14.17;;;10.47;;
8640;SDS011;4358;42.100;25.222;2022-09-14T00:21:21;6.90;;;6.07;;
8640;SDS011;4358;42.100;25.222;2022-09-14T00:23:49;4.50;;;4.10;;
8640;SDS011;4358;42.100;25.222;2022-09-14T00:26:16;2.40;;;2.20;;
8640;SDS011;4358;42.100;25.222;2022-09-14T00:28:47;1.40;;;1.30;;
8640;SDS011;4358;42.100;25.222;2022-09-14T00:31:15;1.47;;;1.37;;
8640;SDS011;4358;42.100;25.222;2022-09-14T00:33:43;1.37;;;1.27;;
8640;SDS011;4358;42.100;25.222;2022-09-14T00:36:14;2.33;;;1.50;;
8640;SDS011;4358;42.100;25.222;2022-09-14T00:38:43;2.00;;;1.80;;
8640;SDS011;4358;42.100;25.222;2022-09-14T00:41:11;3.20;;;2.10;;
8640;SDS011;4358;42.100;25.222;2022-09-14T00:43:50;3.97;;;2.90;;
8640;SDS011;4358;42.100;25.222;2022-09-14T00:46:18;3.80;;;3.40;;
8640;SDS011;4358;42.100;25.222;2022-09-14T00:48:44;7.40;;;5.53;;
8640;SDS011;4358;42.100;25.222;2022-09-14T00:51:11;5.03;;;4.50;;
8640;SDS011;4358;42.100;25.222;2022-09-14T00:53:41;5.90;;;3.83;;
8640;SDS011;4358;42.100;25.222;2022-09-14T00:56:08;3.57;;;3.07;;
8640;SDS011;4358;42.100;25.222;2022-09-14T00:58:35;5.37;;;3.23;;
8640;SDS011;4358;42.100;25.222;2022-09-14T01:01:02;2.57;;;2.37;;
8640;SDS011;4358;42.100;25.222;2022-09-14T01:03:28;4.07;;;2.90;;
8640;SDS011;4358;42.100;25.222;2022-09-14T01:05:58;3.30;;;2.83;;
8640;SDS011;4358;42.100;25.222;2022-09-14T01:08:41;3.20;;;2.90;;
8640;SDS011;4358;42.100;25.222;2022-09-14T01:11:23;3.80;;;3.47;;
8640;SDS011;4358;42.100;25.222;2022-09-14T01:14:02;4.30;;;3.90;;
8640;SDS011;4358;42.100;25.222;2022-09-14T01:16:41;4.03;;;3.60;;
8640;SDS011;4358;42.100;25.222;2022-09-14T01:19:17;5.23;;;3.93;;
8640;SDS011;4358;42.100;25.222;2022-09-14T01:21:49;4.20;;;3.80;;
8640;SDS011;4358;42.100;25.222;2022-09-14T01:24:21;4.43;;;3.80;;
8640;SDS011;4358;42.100;25.222;2022-09-14T01:30:08;3.43;;;2.77;;
8640;SDS011;4358;42.100;25.222;2022-09-14T01:32:38;3.30;;;2.97;;
8640;SDS011;4358;42.100;25.222;2022-09-14T01:35:12;2.50;;;2.30;;
8640;SDS011;4358;42.100;25.222;2022-09-14T01:37:44;2.47;;;2.27;;
8640;SDS011;4358;42.100;25.222;2022-09-14T01:40:15;3.43;;;2.70;;
8640;SDS011;4358;42.100;25.222;2022-09-14T01:42:48;4.93;;;3.33;;
8640;SDS011;4358;42.100;25.222;2022-09-14T01:45:19;4.93;;;4.03;;
8640;SDS011;4358;42.100;25.222;2022-09-14T01:47:51;6.53;;;4.70;;
8640;SDS011;4358;42.100;25.222;2022-09-14T01:50:22;7.03;;;5.00;;
8640;SDS011;4358;42.100;25.222;2022-09-14T01:52:56;6.93;;;4.77;;
8640;SDS011;4358;42.100;25.222;2022-09-14T01:55:26;5.73;;;4.93;;
8640;SDS011;4358;42.100;25.222;2022-09-14T01:57:57;4.60;;;4.20;;
8640;SDS011;4358;42.100;25.222;2022-09-14T02:00:30;9.37;;;4.20;;
8640;SDS011;4358;42.100;25.222;2022-09-14T02:02:59;4.47;;;4.03;;
8640;SDS011;4358;42.100;25.222;2022-09-14T02:05:32;6.33;;;3.87;;
8640;SDS011;4358;42.100;25.222;2022-09-14T02:08:04;4.40;;;3.77;;
8640;SDS011;4358;42.100;25.222;2022-09-14T02:10:31;3.17;;;2.93;;
8640;SDS011;4358;42.100;25.222;2022-09-14T02:12:59;5.80;;;5.20;;
8640;SDS011;4358;42.100;25.222;2022-09-14T02:15:26;5.37;;;4.03;;
8640;SDS011;4358;42.100;25.222;2022-09-14T02:17:54;2.83;;;2.63;;
8640;SDS011;4358;42.100;25.222;2022-09-14T02:20:22;2.17;;;1.97;;
8640;SDS011;4358;42.100;25.222;2022-09-14T02:22:53;1.87;;;1.60;;
8640;SDS011;4358;42.100;25.222;2022-09-14T02:25:21;1.47;;;1.37;;
8640;SDS011;4358;42.100;25.222;2022-09-14T02:27:48;1.73;;;1.63;;
8640;SDS011;4358;42.100;25.222;2022-09-14T02:30:16;2.60;;;2.17;;
8640;SDS011;4358;42.100;25.222;2022-09-14T02:32:46;2.47;;;2.27;;
8640;SDS011;4358;42.100;25.222;2022-09-14T02:35:27;2.33;;;2.13;;
8640;SDS011;4358;42.100;25.222;2022-09-14T02:38:02;2.20;;;2.00;;
8640;SDS011;4358;42.100;25.222;2022-09-14T02:40:50;2.80;;;2.37;;
8640;SDS011;4358;42.100;25.222;2022-09-14T02:43:21;2.27;;;2.07;;
8640;SDS011;4358;42.100;25.222;2022-09-14T02:45:58;2.20;;;1.90;;
8640;SDS011;4358;42.100;25.222;2022-09-14T02:48:32;1.93;;;1.50;;
8640;SDS011;4358;42.100;25.222;2022-09-14T02:51:06;1.83;;;1.67;;
8640;SDS011;4358;42.100;25.222;2022-09-14T02:53:42;1.73;;;1.63;;
8640;SDS011;4358;42.100;25.222;2022-09-14T02:56:13;1.43;;;1.33;;
8640;SDS011;4358;42.100;25.222;2022-09-14T02:58:42;2.50;;;2.10;;
8640;SDS011;4358;42.100;25.222;2022-09-14T03:01:11;1.47;;;1.27;;
8640;SDS011;4358;42.100;25.222;2022-09-14T03:03:40;1.80;;;1.70;;
8640;SDS011;4358;42.100;25.222;2022-09-14T03:06:08;1.70;;;1.60;;
8640;SDS011;4358;42.100;25.222;2022-09-14T03:08:35;1.60;;;1.43;;
8640;SDS011;4358;42.100;25.222;2022-09-14T03:11:02;2.13;;;1.73;;
8640;SDS011;4358;42.100;25.222;2022-09-14T03:13:29;1.63;;;1.53;;
8640;SDS011;4358;42.100;25.222;2022-09-14T03:15:56;2.23;;;2.03;;
8640;SDS011;4358;42.100;25.222;2022-09-14T03:18:23;1.80;;;1.70;;
8640;SDS011;4358;42.100;25.222;2022-09-14T03:20:50;2.03;;;1.90;;
8640;SDS011;4358;42.100;25.222;2022-09-14T03:23:18;2.20;;;1.80;;
8640;SDS011;4358;42.100;25.222;2022-09-14T03:25:45;5.73;;;1.80;;
8640;SDS011;4358;42.100;25.222;2022-09-14T03:28:11;2.30;;;1.87;;
8640;SDS011;4358;42.100;25.222;2022-09-14T03:30:38;2.50;;;2.20;;
8640;SDS011;4358;42.100;25.222;2022-09-14T03:33:05;2.80;;;2.50;;
8640;SDS011;4358;42.100;25.222;2022-09-14T03:35:32;4.93;;;4.23;;
8640;SDS011;4358;42.100;25.222;2022-09-14T03:37:59;7.77;;;6.90;;
8640;SDS011;4358;42.100;25.222;2022-09-14T03:40:28;6.60;;;5.77;;
8640;SDS011;4358;42.100;25.222;2022-09-14T03:42:55;4.43;;;4.03;;
8640;SDS011;4358;42.100;25.222;2022-09-14T03:45:22;4.13;;;3.73;;
8640;SDS011;4358;42.100;25.222;2022-09-14T03:47:49;2.50;;;2.10;;
8640;SDS011;4358;42.100;25.222;2022-09-14T03:50:16;1.93;;;1.80;;
8640;SDS011;4358;42.100;25.222;2022-09-14T03:52:44;2.80;;;2.27;;
8640;SDS011;4358;42.100;25.222;2022-09-14T03:55:11;2.90;;;2.60;;
8640;SDS011;4358;42.100;25.222;2022-09-14T03:57:39;3.13;;;1.80;;
8640;SDS011;4358;42.100;25.222;2022-09-14T04:00:06;3.53;;;2.30;;
8640;SDS011;4358;42.100;25.222;2022-09-14T04:02:34;2.30;;;2.00;;
8640;SDS011;4358;42.100;25.222;2022-09-14T04:05:01;1.93;;;1.73;;
8640;SDS011;4358;42.100;25.222;2022-09-14T04:07:28;3.00;;;1.90;;
8640;SDS011;4358;42.100;25.222;2022-09-14T04:09:54;1.50;;;1.40;;
8640;SDS011;4358;42.100;25.222;2022-09-14T04:12:21;1.93;;;1.73;;
8640;SDS011;4358;42.100;25.222;2022-09-14T04:14:50;1.80;;;1.70;;
8640;SDS011;4358;42.100;25.222;2022-09-14T04:17:17;2.03;;;1.83;;
8640;SDS011;4358;42.100;25.222;2022-09-14T04:19:43;2.07;;;1.67;;
8640;SDS011;4358;42.100;25.222;2022-09-14T04:22:10;1.73;;;1.63;;
8640;SDS011;4358;42.100;25.222;2022-09-14T04:24:37;2.30;;;1.97;;
8640;SDS011;4358;42.100;25.222;2022-09-14T04:27:04;2.13;;;1.70;;
8640;SDS011;4358;42.100;25.222;2022-09-14T04:29:31;2.07;;;1.70;;
8640;SDS011;4358;42.100;25.222;2022-09-14T04:31:59;2.10;;;1.90;;
8640;SDS011;4358;42.100;25.222;2022-09-14T04:34:26;2.27;;;1.77;;
8640;SDS011;4358;42.100;25.222;2022-09-14T04:36:53;3.40;;;2.23;;
8640;SDS011;4358;42.100;25.222;2022-09-14T04:39:20;2.23;;;2.03;;
8640;SDS011;4358;42.100;25.222;2022-09-14T04:41:47;2.73;;;2.00;;
8640;SDS011;4358;42.100;25.222;2022-09-14T04:44:14;3.03;;;2.57;;
8640;SDS011;4358;42.100;25.222;2022-09-14T04:46:41;2.07;;;1.90;;
8640;SDS011;4358;42.100;25.222;2022-09-14T04:49:09;2.00;;;1.80;;
8640;SDS011;4358;42.100;25.222;2022-09-14T04:51:37;2.00;;;1.90;;
8640;SDS011;4358;42.100;25.222;2022-09-14T04:54:04;2.07;;;1.80;;
8640;SDS011;4358;42.100;25.222;2022-09-14T04:56:33;3.83;;;2.37;;
8640;SDS011;4358;42.100;25.222;2022-09-14T04:59:01;5.47;;;3.27;;
8640;SDS011;4358;42.100;25.222;2022-09-14T05:01:30;3.87;;;3.47;;
8640;SDS011;4358;42.100;25.222;2022-09-14T05:04:00;6.37;;;4.63;;
8640;SDS011;4358;42.100;25.222;2022-09-14T05:06:29;5.50;;;5.00;;
8640;SDS011;4358;42.100;25.222;2022-09-14T05:08:57;6.40;;;4.93;;
8640;SDS011;4358;42.100;25.222;2022-09-14T05:11:26;4.70;;;4.30;;
8640;SDS011;4358;42.100;25.222;2022-09-14T05:13:55;4.73;;;3.80;;
8640;SDS011;4358;42.100;25.222;2022-09-14T05:16:23;3.03;;;2.80;;
8640;SDS011;4358;42.100;25.222;2022-09-14T05:18:52;3.10;;;2.80;;
8640;SDS011;4358;42.100;25.222;2022-09-14T05:21:20;3.23;;;2.93;;
8640;SDS011;4358;42.100;25.222;2022-09-14T05:23:53;2.90;;;2.60;;
8640;SDS011;4358;42.100;25.222;2022-09-14T05:26:21;2.30;;;2.10;;
8640;SDS011;4358;42.100;25.222;2022-09-14T05:28:49;4.33;;;2.77;;
8640;SDS011;4358;42.100;25.222;2022-09-14T05:31:18;5.83;;;3.77;;
8640;SDS011;4358;42.100;25.222;2022-09-14T05:33:45;5.80;;;4.20;;
8640;SDS011;4358;42.100;25.222;2022-09-14T05:36:13;5.73;;;3.77;;
8640;SDS011;4358;42.100;25.222;2022-09-14T05:38:40;4.33;;;2.90;;
8640;SDS011;4358;42.100;25.222;2022-09-14T05:41:08;2.30;;;2.10;;
8640;SDS011;4358;42.100;25.222;2022-09-14T05:43:37;2.30;;;2.10;;
8640;SDS011;4358;42.100;25.222;2022-09-14T05:46:05;3.17;;;2.63;;
8640;SDS011;4358;42.100;25.222;2022-09-14T05:48:33;2.33;;;2.13;;
8640;SDS011;4358;42.100;25.222;2022-09-14T05:51:02;2.60;;;2.33;;
8640;SDS011;4358;42.100;25.222;2022-09-14T05:53:31;3.43;;;2.90;;
8640;SDS011;4358;42.100;25.222;2022-09-14T05:56:00;3.20;;;2.77;;
8640;SDS011;4358;42.100;25.222;2022-09-14T05:58:29;2.37;;;2.17;;
8640;SDS011;4358;42.100;25.222;2022-09-14T06:00:56;3.00;;;2.53;;
8640;SDS011;4358;42.100;25.222;2022-09-14T06:03:24;2.97;;;2.73;;
8640;SDS011;4358;42.100;25.222;2022-09-14T06:05:50;2.33;;;2.10;;
8640;SDS011;4358;42.100;25.222;2022-09-14T06:08:19;2.80;;;2.17;;
8640;SDS011;4358;42.100;25.222;2022-09-14T06:10:47;3.57;;;3.00;;
8640;SDS011;4358;42.100;25.222;2022-09-14T06:13:14;3.60;;;2.57;;
8640;SDS011;4358;42.100;25.222;2022-09-14T06:15:42;2.23;;;2.03;;
8640;SDS011;4358;42.100;25.222;2022-09-14T06:18:09;2.17;;;1.97;;
8640;SDS011;4358;42.100;25.222;2022-09-14T06:20:35;3.10;;;2.23;;
8640;SDS011;4358;42.100;25.222;2022-09-14T06:23:02;2.10;;;1.90;;
8640;SDS011;4358;42.100;25.222;2022-09-14T06:25:29;2.23;;;2.00;;
8640;SDS011;4358;42.100;25.222;2022-09-14T06:27:56;3.60;;;2.33;;
8640;SDS011;4358;42.100;25.222;2022-09-14T06:30:23;2.30;;;2.00;;
8640;SDS011;4358;42.100;25.222;2022-09-14T06:32:52;1.73;;;1.63;;
8640;SDS011;4358;42.100;25.222;2022-09-14T06:35:18;4.20;;;2.73;;
8640;SDS011;4358;42.100;25.222;2022-09-14T06:37:45;2.73;;;2.50;;
8640;SDS011;4358;42.100;25.222;2022-09-14T06:40:12;2.10;;;1.90;;
8640;SDS011;4358;42.100;25.222;2022-09-14T06:42:39;1.87;;;1.73;;
8640;SDS011;4358;42.100;25.222;2022-09-14T06:45:06;2.07;;;1.77;;
8640;SDS011;4358;42.100;25.222;2022-09-14T06:47:34;3.30;;;1.83;;
8640;SDS011;4358;42.100;25.222;2022-09-14T06:50:02;1.60;;;1.50;;
8640;SDS011;4358;42.100;25.222;2022-09-14T06:52:29;2.67;;;2.07;;
8640;SDS011;4358;42.100;25.222;2022-09-14T06:54:56;2.10;;;1.60;;
8640;SDS011;4358;42.100;25.222;2022-09-14T06:57:23;1.50;;;1.40;;
8640;SDS011;4358;42.100;25.222;2022-09-14T06:59:50;1.63;;;1.50;;
8640;SDS011;4358;42.100;25.222;2022-09-14T07:02:17;2.00;;;1.67;;
8640;SDS011;4358;42.100;25.222;2022-09-14T07:04:44;2.00;;;1.57;;
8640;SDS011;4358;42.100;25.222;2022-09-14T07:07:12;1.63;;;1.53;;
8640;SDS011;4358;42.100;25.222;2022-09-14T07:09:40;6.37;;;1.70;;
8640;SDS011;4358;42.100;25.222;2022-09-14T07:12:07;1.73;;;1.60;;
8640;SDS011;4358;42.100;25.222;2022-09-14T07:14:35;1.80;;;1.60;;
8640;SDS011;4358;42.100;25.222;2022-09-14T07:17:03;1.70;;;1.60;;
8640;SDS011;4358;42.100;25.222;2022-09-14T07:19:29;3.63;;;1.80;;
8640;SDS011;4358;42.100;25.222;2022-09-14T07:21:56;1.60;;;1.50;;
8640;SDS011;4358;42.100;25.222;2022-09-14T07:24:25;1.77;;;1.67;;
8640;SDS011;4358;42.100;25.222;2022-09-14T07:26:52;2.10;;;1.40;;
8640;SDS011;4358;42.100;25.222;2022-09-14T07:29:19;1.70;;;1.60;;
8640;SDS011;4358;42.100;25.222;2022-09-14T07:31:47;2.73;;;1.70;;
8640;SDS011;4358;42.100;25.222;2022-09-14T07:34:15;2.87;;;2.37;;
8640;SDS011;4358;42.100;25.222;2022-09-14T07:36:42;2.33;;;1.83;;
8640;SDS011;4358;42.100;25.222;2022-09-14T07:39:10;1.87;;;1.60;;
8640;SDS011;4358;42.100;25.222;2022-09-14T07:41:39;1.93;;;1.63;;
8640;SDS011;4358;42.100;25.222;2022-09-14T07:44:07;2.33;;;2.13;;
8640;SDS011;4358;42.100;25.222;2022-09-14T07:46:35;2.07;;;1.70;;
8640;SDS011;4358;42.100;25.222;2022-09-14T07:49:04;1.73;;;1.30;;
8640;SDS011;4358;42.100;25.222;2022-09-14T07:51:33;1.73;;;1.50;;
8640;SDS011;4358;42.100;25.222;2022-09-14T07:54:01;2.73;;;1.80;;
8640;SDS011;4358;42.100;25.222;2022-09-14T07:56:28;3.67;;;2.80;;
8640;SDS011;4358;42.100;25.222;2022-09-14T07:58:57;1.80;;;1.50;;
8640;SDS011;4358;42.100;25.222;2022-09-14T08:01:25;1.83;;;1.60;;
8640;SDS011;4358;42.100;25.222;2022-09-14T08:03:53;2.13;;;1.80;;
8640;SDS011;4358;42.100;25.222;2022-09-14T08:06:21;3.37;;;2.40;;
8640;SDS011;4358;42.100;25.222;2022-09-14T08:08:50;3.57;;;2.43;;
8640;SDS011;4358;42.100;25.222;2022-09-14T08:11:19;3.03;;;2.13;;
8640;SDS011;4358;42.100;25.222;2022-09-14T08:13:52;6.37;;;4.50;;
8640;SDS011;4358;42.100;25.222;2022-09-14T08:16:21;2.77;;;1.80;;
8640;SDS011;4358;42.100;25.222;2022-09-14T08:18:51;2.20;;;1.70;;
8640;SDS011;4358;42.100;25.222;2022-09-14T08:21:20;3.00;;;2.47;;
8640;SDS011;4358;42.100;25.222;2022-09-14T08:23:48;2.37;;;1.90;;
8640;SDS011;4358;42.100;25.222;2022-09-14T08:26:16;1.57;;;1.43;;
8640;SDS011;4358;42.100;25.222;2022-09-14T08:28:45;2.17;;;1.73;;
8640;SDS011;4358;42.100;25.222;2022-09-14T08:31:14;8.63;;;5.53;;
8640;SDS011;4358;42.100;25.222;2022-09-14T08:33:44;6.03;;;2.70;;
8640;SDS011;4358;42.100;25.222;2022-09-14T08:36:14;2.17;;;1.60;;
8640;SDS011;4358;42.100;25.222;2022-09-14T08:38:42;2.73;;;2.40;;
8640;SDS011;4358;42.100;25.222;2022-09-14T08:41:13;2.33;;;1.80;;
8640;SDS011;4358;42.100;25.222;2022-09-14T08:43:48;4.87;;;4.03;;
8640;SDS011;4358;42.100;25.222;2022-09-14T08:46:18;2.27;;;1.77;;
8640;SDS011;4358;42.100;25.222;2022-09-14T08:48:55;2.23;;;1.67;;
8640;SDS011;4358;42.100;25.222;2022-09-14T08:51:23;8.63;;;5.80;;
8640;SDS011;4358;42.100;25.222;2022-09-14T08:53:50;2.83;;;2.60;;
8640;SDS011;4358;42.100;25.222;2022-09-14T08:56:20;2.40;;;1.70;;
8640;SDS011;4358;42.100;25.222;2022-09-14T08:58:52;4.53;;;1.90;;
8640;SDS011;4358;42.100;25.222;2022-09-14T09:01:31;3.30;;;2.10;;
8640;SDS011;4358;42.100;25.222;2022-09-14T09:04:21;2.07;;;1.60;;
8640;SDS011;4358;42.100;25.222;2022-09-14T09:06:57;2.20;;;1.70;;
8640;SDS011;4358;42.100;25.222;2022-09-14T09:09:32;1.70;;;1.57;;
8640;SDS011;4358;42.100;25.222;2022-09-14T09:12:07;1.50;;;1.40;;
8640;SDS011;4358;42.100;25.222;2022-09-14T09:14:38;2.73;;;1.60;;
8640;SDS011;4358;42.100;25.222;2022-09-14T09:17:09;2.23;;;1.40;;
8640;SDS011;4358;42.100;25.222;2022-09-14T09:19:44;3.57;;;1.77;;
8640;SDS011;4358;42.100;25.222;2022-09-14T09:22:20;1.83;;;1.57;;
8640;SDS011;4358;42.100;25.222;2022-09-14T09:24:50;2.10;;;1.53;;
8640;SDS011;4358;42.100;25.222;2022-09-14T09:27:19;4.60;;;1.70;;
8640;SDS011;4358;42.100;25.222;2022-09-14T09:29:48;2.60;;;2.40;;
8640;SDS011;4358;42.100;25.222;2022-09-14T09:32:16;3.53;;;1.80;;
8640;SDS011;4358;42.100;25.222;2022-09-14T09:34:46;1.67;;;1.53;;
8640;SDS011;4358;42.100;25.222;2022-09-14T09:37:14;1.77;;;1.50;;
8640;SDS011;4358;42.100;25.222;2022-09-14T09:39:42;1.90;;;1.70;;
8640;SDS011;4358;42.100;25.222;2022-09-14T09:42:11;2.93;;;2.10;;
8640;SDS011;4358;42.100;25.222;2022-09-14T09:44:54;1.80;;;1.70;;
8640;SDS011;4358;42.100;25.222;2022-09-14T09:47:32;3.97;;;1.60;;
8640;SDS011;4358;42.100;25.222;2022-09-14T09:50:03;2.37;;;1.93;;
8640;SDS011;4358;42.100;25.222;2022-09-14T09:52:43;2.53;;;1.60;;
8640;SDS011;4358;42.100;25.222;2022-09-14T09:55:16;2.10;;;1.70;;
8640;SDS011;4358;42.100;25.222;2022-09-14T09:57:44;1.73;;;1.60;;
8640;SDS011;4358;42.100;25.222;2022-09-14T10:00:18;1.70;;;1.60;;
8640;SDS011;4358;42.100;25.222;2022-09-14T10:02:48;1.87;;;1.63;;
8640;SDS011;4358;42.100;25.222;2022-09-14T10:05:20;2.03;;;1.63;;
8640;SDS011;4358;42.100;25.222;2022-09-14T10:07:52;1.80;;;1.50;;
8640;SDS011;4358;42.100;25.222;2022-09-14T10:10:23;2.00;;;1.50;;
8640;SDS011;4358;42.100;25.222;2022-09-14T10:12:52;2.43;;;1.40;;
8640;SDS011;4358;42.100;25.222;2022-09-14T10:15:21;3.33;;;1.47;;
8640;SDS011;4358;42.100;25.222;2022-09-14T10:18:05;2.83;;;1.43;;
8640;SDS011;4358;42.100;25.222;2022-09-14T10:20:35;3.70;;;1.30;;
8640;SDS011;4358;42.100;25.222;2022-09-14T10:23:14;1.47;;;1.37;;
8640;SDS011;4358;42.100;25.222;2022-09-14T10:25:49;2.80;;;1.73;;
8640;SDS011;4358;42.100;25.222;2022-09-14T10:28:19;1.47;;;1.37;;
8640;SDS011;4358;42.100;25.222;2022-09-14T10:30:48;1.60;;;1.40;;
8640;SDS011;4358;42.100;25.222;2022-09-14T10:33:19;1.63;;;1.53;;
8640;SDS011;4358;42.100;25.222;2022-09-14T10:35:49;1.67;;;1.47;;
8640;SDS011;4358;42.100;25.222;2022-09-14T10:38:27;1.43;;;1.33;;
8640;SDS011;4358;42.100;25.222;2022-09-14T10:40:59;1.53;;;1.43;;
8640;SDS011;4358;42.100;25.222;2022-09-14T10:43:41;1.70;;;1.40;;
8640;SDS011;4358;42.100;25.222;2022-09-14T10:46:27;1.57;;;1.40;;
8640;SDS011;4358;42.100;25.222;2022-09-14T10:49:17;1.27;;;1.17;;
8640;SDS011;4358;42.100;25.222;2022-09-14T10:51:59;1.73;;;1.40;;
8640;SDS011;4358;42.100;25.222;2022-09-14T10:54:38;1.30;;;1.20;;
8640;SDS011;4358;42.100;25.222;2022-09-14T10:57:19;1.67;;;1.40;;
8640;SDS011;4358;42.100;25.222;2022-09-14T10:59:55;2.00;;;1.47;;
8640;SDS011;4358;42.100;25.222;2022-09-14T11:05:26;2.83;;;1.23;;
8640;SDS011;4358;42.100;25.222;2022-09-14T11:08:00;2.03;;;1.50;;
8640;SDS011;4358;42.100;25.222;2022-09-14T11:10:35;1.50;;;1.30;;
8640;SDS011;4358;42.100;25.222;2022-09-14T11:16:01;1.30;;;1.20;;
8640;SDS011;4358;42.100;25.222;2022-09-14T11:18:43;1.60;;;1.50;;
8640;SDS011;4358;42.100;25.222;2022-09-14T11:21:20;2.73;;;1.30;;
8640;SDS011;4358;42.100;25.222;2022-09-14T11:23:55;1.40;;;1.13;;
8640;SDS011;4358;42.100;25.222;2022-09-14T11:26:29;1.40;;;1.30;;
8640;SDS011;4358;42.100;25.222;2022-09-14T11:29:06;1.50;;;1.40;;
8640;SDS011;4358;42.100;25.222;2022-09-14T11:31:43;3.20;;;1.23;;
8640;SDS011;4358;42.100;25.222;2022-09-14T11:34:18;1.40;;;1.30;;
8640;SDS011;4358;42.100;25.222;2022-09-14T11:36:48;1.20;;;1.10;;
8640;SDS011;4358;42.100;25.222;2022-09-14T11:39:21;1.77;;;1.10;;
8640;SDS011;4358;42.100;25.222;2022-09-14T11:41:52;1.30;;;1.20;;
8640;SDS011;4358;42.100;25.222;2022-09-14T11:44:25;1.40;;;1.30;;
8640;SDS011;4358;42.100;25.222;2022-09-14T11:46:59;4.93;;;1.23;;
8640;SDS011;4358;42.100;25.222;2022-09-14T11:49:29;1.20;;;1.10;;
8640;SDS011;4358;42.100;25.222;2022-09-14T11:52:07;1.20;;;1.10;;
8640;SDS011;4358;42.100;25.222;2022-09-14T11:54:40;1.53;;;1.43;;
8640;SDS011;4358;42.100;25.222;2022-09-14T11:57:11;12.93;;;8.50;;
8640;SDS011;4358;42.100;25.222;2022-09-14T11:59:49;2.03;;;1.50;;
8640;SDS011;4358;42.100;25.222;2022-09-14T12:05:34;1.70;;;1.20;;
8640;SDS011;4358;42.100;25.222;2022-09-14T12:08:23;1.13;;;1.03;;
8640;SDS011;4358;42.100;25.222;2022-09-14T12:14:11;1.33;;;1.23;;
8640;SDS011;4358;42.100;25.222;2022-09-14T12:19:29;1.30;;;1.10;;
8640;SDS011;4358;42.100;25.222;2022-09-14T12:21:58;4.27;;;1.23;;
8640;SDS011;4358;42.100;25.222;2022-09-14T12:24:44;1.30;;;1.20;;
8640;SDS011;4358;42.100;25.222;2022-09-14T12:27:24;1.27;;;1.17;;
8640;SDS011;4358;42.100;25.222;2022-09-14T12:29:51;2.03;;;1.50;;
8640;SDS011;4358;42.100;25.222;2022-09-14T12:32:37;1.20;;;1.10;;
8640;SDS011;4358;42.100;25.222;2022-09-14T12:44:30;1.20;;;1.10;;
8640;SDS011;4358;42.100;25.222;2022-09-14T12:50:03;1.63;;;1.10;;
8640;SDS011;4358;42.100;25.222;2022-09-14T12:52:37;1.23;;;1.10;;
8640;SDS011;4358;42.100;25.222;2022-09-14T12:58:14;1.30;;;1.20;;
8640;SDS011;4358;42.100;25.222;2022-09-14T13:00:56;1.30;;;1.20;;
8640;SDS011;4358;42.100;25.222;2022-09-14T13:03:39;1.40;;;1.00;;
8640;SDS011;4358;42.100;25.222;2022-09-14T13:06:12;1.23;;;1.13;;
8640;SDS011;4358;42.100;25.222;2022-09-14T13:08:41;1.33;;;1.20;;
8640;SDS011;4358;42.100;25.222;2022-09-14T13:11:17;4.77;;;1.33;;
8640;SDS011;4358;42.100;25.222;2022-09-14T13:13:46;3.00;;;1.20;;
8640;SDS011;4358;42.100;25.222;2022-09-14T13:16:18;1.20;;;1.10;;
8640;SDS011;4358;42.100;25.222;2022-09-14T13:18:59;1.37;;;1.00;;
8640;SDS011;4358;42.100;25.222;2022-09-14T13:21:29;3.43;;;1.17;;
8640;SDS011;4358;42.100;25.222;2022-09-14T13:23:56;1.20;;;1.10;;
8640;SDS011;4358;42.100;25.222;2022-09-14T13:26:23;1.30;;;1.20;;
8640;SDS011;4358;42.100;25.222;2022-09-14T13:28:53;1.20;;;1.10;;
8640;SDS011;4358;42.100;25.222;2022-09-14T13:31:25;1.70;;;1.20;;
8640;SDS011;4358;42.100;25.222;2022-09-14T13:33:56;1.20;;;1.10;;
8640;SDS011;4358;42.100;25.222;2022-09-14T13:36:25;1.40;;;1.10;;
8640;SDS011;4358;42.100;25.222;2022-09-14T13:38:55;1.37;;;1.10;;
8640;SDS011;4358;42.100;25.222;2022-09-14T13:41:26;1.30;;;1.20;;
8640;SDS011;4358;42.100;25.222;2022-09-14T13:43:54;1.30;;;1.10;;
8640;SDS011;4358;42.100;25.222;2022-09-14T13:46:23;2.50;;;1.20;;
8640;SDS011;4358;42.100;25.222;2022-09-14T13:48:52;5.13;;;3.77;;
8640;SDS011;4358;42.100;25.222;2022-09-14T13:51:21;2.00;;;1.73;;
8640;SDS011;4358;42.100;25.222;2022-09-14T13:53:49;1.23;;;1.13;;
8640;SDS011;4358;42.100;25.222;2022-09-14T13:56:19;1.10;;;1.00;;
8640;SDS011;4358;42.100;25.222;2022-09-14T13:58:48;1.30;;;1.10;;
8640;SDS011;4358;42.100;25.222;2022-09-14T14:01:24;1.00;;;1.00;;
8640;SDS011;4358;42.100;25.222;2022-09-14T14:03:52;1.77;;;1.10;;
8640;SDS011;4358;42.100;25.222;2022-09-14T14:06:21;1.87;;;1.20;;
8640;SDS011;4358;42.100;25.222;2022-09-14T14:08:54;1.30;;;1.20;;
8640;SDS011;4358;42.100;25.222;2022-09-14T14:11:25;1.73;;;1.23;;
8640;SDS011;4358;42.100;25.222;2022-09-14T14:13:53;1.20;;;1.10;;
8640;SDS011;4358;42.100;25.222;2022-09-14T14:16:22;1.67;;;1.17;;
8640;SDS011;4358;42.100;25.222;2022-09-14T14:18:52;1.17;;;1.03;;
8640;SDS011;4358;42.100;25.222;2022-09-14T14:21:27;1.20;;;1.10;;
8640;SDS011;4358;42.100;25.222;2022-09-14T14:26:46;1.23;;;1.07;;
8640;SDS011;4358;42.100;25.222;2022-09-14T14:29:14;1.90;;;1.20;;
8640;SDS011;4358;42.100;25.222;2022-09-14T14:31:43;1.13;;;1.03;;
8640;SDS011;4358;42.100;25.222;2022-09-14T14:34:15;1.00;;;0.90;;
8640;SDS011;4358;42.100;25.222;2022-09-14T14:36:44;5.03;;;1.35;;
8640;SDS011;4358;42.100;25.222;2022-09-14T14:39:12;1.13;;;1.02;;
8640;SDS011;4358;42.100;25.222;2022-09-14T14:41:39;1.92;;;1.10;;
8640;SDS011;4358;42.100;25.222;2022-09-14T14:44:07;1.60;;;1.30;;
8640;SDS011;4358;42.100;25.222;2022-09-14T14:46:39;1.75;;;1.00;;
8640;SDS011;4358;42.100;25.222;2022-09-14T14:49:08;1.33;;;1.20;;
8640;SDS011;4358;42.100;25.222;2022-09-14T14:51:36;1.30;;;1.20;;
8640;SDS011;4358;42.100;25.222;2022-09-14T14:54:03;1.97;;;1.20;;
8640;SDS011;4358;42.100;25.222;2022-09-14T14:56:30;1.27;;;1.10;;
8640;SDS011;4358;42.100;25.222;2022-09-14T14:58:57;1.20;;;1.10;;
8640;SDS011;4358;42.100;25.222;2022-09-14T15:01:24;1.13;;;1.03;;
8640;SDS011;4358;42.100;25.222;2022-09-14T15:03:51;1.23;;;1.08;;
8640;SDS011;4358;42.100;25.222;2022-09-14T15:06:19;3.78;;;1.17;;
8640;SDS011;4358;42.100;25.222;2022-09-14T15:08:50;1.42;;;1.15;;
8640;SDS011;4358;42.100;25.222;2022-09-14T15:11:18;1.48;;;1.17;;
8640;SDS011;4358;42.100;25.222;2022-09-14T15:13:45;3.95;;;1.27;;
8640;SDS011;4358;42.100;25.222;2022-09-14T15:16:12;2.28;;;1.27;;
8640;SDS011;4358;42.100;25.222;2022-09-14T15:18:40;1.98;;;1.23;;
8640;SDS011;4358;42.100;25.222;2022-09-14T15:21:07;1.30;;;1.20;;
8640;SDS011;4358;42.100;25.222;2022-09-14T15:23:36;1.35;;;1.25;;
8640;SDS011;4358;42.100;25.222;2022-09-14T15:26:03;1.20;;;1.10;;
8640;SDS011;4358;42.100;25.222;2022-09-14T15:28:30;1.20;;;1.10;;
8640;SDS011;4358;42.100;25.222;2022-09-14T15:30:59;2.60;;;1.13;;
8640;SDS011;4358;42.100;25.222;2022-09-14T15:33:26;1.20;;;1.10;;
8640;SDS011;4358;42.100;25.222;2022-09-14T15:35:53;1.77;;;1.10;;
8640;SDS011;4358;42.100;25.222;2022-09-14T15:38:21;1.35;;;1.23;;
8640;SDS011;4358;42.100;25.222;2022-09-14T15:40:50;1.50;;;1.40;;
8640;SDS011;4358;42.100;25.222;2022-09-14T15:43:17;1.27;;;1.15;;
8640;SDS011;4358;42.100;25.222;2022-09-14T15:45:43;1.42;;;1.30;;
8640;SDS011;4358;42.100;25.222;2022-09-14T15:48:11;1.83;;;1.40;;
8640;SDS011;4358;42.100;25.222;2022-09-14T15:50:39;1.48;;;1.10;;
8640;SDS011;4358;42.100;25.222;2022-09-14T15:53:08;1.15;;;1.05;;
8640;SDS011;4358;42.100;25.222;2022-09-14T15:55:37;1.35;;;1.25;;